createdAt,value
2019-01-03T00:01:25.949Z,56.50
2019-01-03T00:04:25.283Z,56.80
2019-01-03T00:07:24.525Z,57.40
2019-01-03T00:10:24.819Z,57.30
2019-01-03T00:13:24.060Z,58.10
2019-01-03T00:16:23.499Z,57.90
2019-01-03T00:19:23.574Z,57.40
2019-01-03T00:22:22.930Z,57.60
2019-01-03T00:25:22.915Z,57.10
2019-01-03T00:28:25.106Z,56.70
2019-01-03T00:31:30.902Z,56.90
2019-01-03T00:34:21.193Z,56.40
2019-01-03T00:37:22.227Z,56.60
2019-01-03T00:40:22.623Z,56.80
2019-01-03T00:43:20.944Z,57.20
2019-01-03T00:46:26.426Z,57.10
2019-01-03T00:49:26.586Z,57.40
2019-01-03T00:52:26.819Z,57.50
2019-01-03T00:55:27.060Z,57.10
2019-01-03T00:58:29.314Z,57.10
2019-01-03T01:01:31.891Z,56.60
2019-01-03T01:05:05.019Z,56.80
2019-01-03T01:08:04.706Z,57.20
2019-01-03T01:11:04.973Z,57.50
2019-01-03T01:14:05.046Z,57.30
2019-01-03T01:17:04.573Z,57.30
2019-01-03T01:20:04.655Z,57.10
2019-01-03T01:23:04.740Z,56.80
2019-01-03T01:26:04.241Z,56.60
2019-01-03T01:29:03.609Z,56.70
2019-01-03T01:32:03.016Z,56.40
2019-01-03T01:35:03.122Z,56.20
2019-01-03T01:38:02.383Z,56.40
2019-01-03T01:41:02.429Z,56.90
2019-01-03T01:44:02.688Z,56.40
2019-01-03T01:47:01.878Z,56.30
2019-01-03T01:50:02.089Z,56.70
2019-01-03T01:53:02.681Z,56.30
2019-01-03T01:56:30.715Z,56.40
2019-01-03T01:59:30.418Z,57.00
2019-01-03T02:02:29.595Z,56.50
2019-01-03T02:05:31.670Z,56.80
2019-01-03T02:08:31.034Z,56.20
2019-01-03T02:11:37.249Z,56.30
2019-01-03T02:14:42.227Z,56.30
2019-01-03T02:17:44.381Z,55.90
2019-01-03T02:23:49.115Z,55.70
2019-01-03T02:26:48.615Z,55.80
2019-01-03T02:29:51.754Z,55.30
2019-01-03T02:32:51.086Z,55.50
2019-01-03T02:38:40.966Z,55.40
2019-01-03T02:41:40.886Z,55.40
2019-01-03T02:44:45.933Z,55.90
2019-01-03T02:47:45.358Z,55.30
2019-01-03T02:50:45.489Z,54.90
2019-01-03T02:53:48.501Z,55.10
2019-01-03T03:00:02.326Z,55.90
2019-01-03T03:03:03.647Z,56.00
2019-01-03T03:06:03.779Z,56.80
2019-01-03T03:09:06.676Z,56.70
2019-01-03T03:12:21.660Z,55.70
2019-01-03T03:15:21.684Z,56.00
2019-01-03T03:18:21.879Z,56.30
2019-01-03T03:21:22.127Z,56.10
2019-01-03T03:24:25.455Z,56.50
2019-01-03T03:27:27.885Z,56.10
2019-01-03T03:30:27.345Z,55.80
2019-01-03T03:33:30.149Z,55.30
2019-01-03T03:36:32.447Z,55.80
2019-01-03T03:39:32.003Z,55.80
2019-01-03T03:42:34.089Z,55.50
2019-01-03T03:45:39.677Z,55.50
2019-01-03T03:48:39.854Z,56.60
2019-01-03T03:51:40.004Z,57.10
2019-01-03T03:54:46.193Z,56.90
2019-01-03T03:57:45.635Z,56.90
2019-01-03T04:00:45.778Z,56.70
2019-01-03T04:03:48.691Z,56.50
2019-01-03T04:06:51.246Z,56.30
2019-01-03T04:09:51.051Z,56.70
2019-01-03T04:12:45.779Z,57.50
2019-01-03T04:16:05.566Z,57.60
2019-01-03T04:19:25.941Z,57.70
2019-01-03T04:22:30.358Z,57.30
2019-01-03T04:25:30.517Z,57.80
2019-01-03T04:28:30.850Z,57.90
2019-01-03T04:31:30.992Z,57.50
2019-01-03T04:34:31.286Z,57.10
2019-01-03T04:40:42.822Z,57.10
2019-01-03T04:43:33.759Z,57.10
2019-01-03T04:46:28.819Z,56.20
2019-01-03T04:49:28.662Z,56.40
2019-01-03T04:52:28.144Z,55.80
2019-01-03T04:55:27.452Z,55.60
2019-01-03T04:58:27.652Z,55.80
2019-01-03T05:01:30.910Z,55.80
2019-01-03T05:04:26.144Z,55.80
2019-01-03T05:07:25.581Z,55.80
2019-01-03T05:13:42.043Z,56.20
2019-01-03T05:16:41.989Z,56.30
2019-01-03T05:19:42.282Z,56.40
2019-01-03T05:22:32.934Z,56.80
2019-01-03T05:25:32.771Z,57.30
2019-01-03T05:28:32.952Z,57.30
2019-01-03T05:31:33.210Z,57.30
2019-01-03T05:34:33.337Z,57.20
2019-01-03T05:37:32.648Z,57.50
2019-01-03T05:40:32.938Z,58.00
2019-01-03T05:43:33.212Z,57.70
2019-01-03T05:46:33.216Z,58.20
2019-01-03T05:49:36.282Z,57.90
2019-01-03T05:52:39.299Z,57.80
2019-01-03T05:55:38.830Z,57.60
2019-01-03T05:58:39.106Z,58.10
2019-01-03T06:01:39.346Z,58.20
2019-01-03T06:04:39.653Z,57.60
2019-01-03T06:07:43.020Z,58.70
2019-01-03T06:10:43.279Z,59.20
2019-01-03T06:13:43.495Z,59.20
2019-01-03T06:16:40.038Z,59.20
2019-01-03T06:19:41.564Z,59.20
2019-01-03T06:22:44.677Z,59.40
2019-01-03T06:25:44.107Z,59.40
2019-01-03T06:28:43.397Z,59.40
2019-01-03T06:31:42.847Z,59.50
2019-01-03T06:34:42.267Z,58.80
2019-01-03T06:37:42.411Z,58.40
2019-01-03T06:40:42.651Z,58.80
2019-01-03T06:43:48.785Z,59.70
2019-01-03T06:46:48.099Z,59.50
2019-01-03T06:49:48.427Z,59.70
2019-01-03T06:52:50.020Z,60.00
2019-01-03T06:55:49.803Z,60.10
2019-01-03T06:58:49.047Z,59.80
2019-01-03T07:01:34.930Z,60.20
2019-01-03T07:04:34.307Z,60.20
2019-01-03T07:07:34.417Z,60.20
2019-01-03T07:10:36.110Z,60.20
2019-01-03T07:13:35.675Z,60.20
2019-01-03T07:16:33.066Z,60.30
2019-01-03T07:19:33.122Z,60.40
2019-01-03T07:22:33.473Z,60.40
2019-01-03T07:25:33.674Z,60.40
2019-01-03T07:28:40.446Z,60.50
2019-01-03T07:31:40.103Z,60.50
2019-01-03T07:34:40.288Z,60.60
2019-01-03T07:37:40.423Z,60.70
2019-01-03T07:40:39.840Z,60.40
2019-01-03T07:43:40.000Z,60.70
2019-01-03T07:46:41.621Z,60.30
2019-01-03T07:49:41.477Z,60.20
2019-01-03T07:52:47.807Z,60.60
2019-01-03T07:55:37.177Z,60.60
2019-01-03T07:58:42.987Z,60.50
2019-01-03T08:01:42.482Z,60.80
2019-01-03T08:04:42.756Z,60.60
2019-01-03T08:07:43.041Z,60.90
2019-01-03T08:10:46.396Z,60.80
2019-01-03T08:13:46.371Z,60.80
2019-01-03T08:16:45.899Z,60.80
2019-01-03T08:19:45.838Z,60.90
2019-01-03T08:26:37.436Z,60.80
2019-01-03T08:29:24.573Z,61.00
2019-01-03T08:32:31.411Z,61.30
2019-01-03T08:35:37.222Z,61.70
2019-01-03T08:38:37.384Z,60.90
2019-01-03T08:41:36.450Z,61.20
2019-01-03T08:44:40.290Z,61.20
2019-01-03T08:50:32.741Z,61.30
2019-01-03T08:53:52.462Z,61.30
2019-01-03T08:57:13.030Z,61.30
2019-01-03T09:03:33.600Z,61.50
2019-01-03T09:06:33.676Z,61.60
2019-01-03T09:09:33.859Z,60.90
2019-01-03T09:12:36.323Z,61.10
2019-01-03T09:15:36.446Z,60.80
2019-01-03T09:18:36.335Z,59.80
2019-01-03T09:21:39.435Z,59.30
2019-01-03T09:24:42.459Z,59.20
2019-01-03T09:27:41.866Z,57.70
2019-01-03T09:30:41.249Z,58.20
2019-01-03T09:33:41.523Z,58.20
2019-01-03T09:36:41.731Z,58.20
2019-01-03T09:39:41.882Z,58.10
2019-01-03T09:42:42.009Z,58.10
2019-01-03T09:45:22.099Z,57.20
2019-01-03T09:48:02.816Z,58.10
2019-01-03T09:50:42.925Z,58.10
2019-01-03T09:53:23.117Z,58.20
2019-01-03T09:56:03.662Z,58.40
2019-01-03T09:58:43.594Z,57.70
2019-01-03T10:01:23.807Z,58.00
2019-01-03T10:04:03.963Z,57.30
2019-01-03T10:06:43.965Z,57.10
2019-01-03T10:09:24.083Z,57.40
2019-01-03T10:12:04.058Z,57.50
2019-01-03T10:14:44.066Z,57.40
2019-01-03T10:17:24.265Z,57.70
2019-01-03T10:20:04.458Z,57.50
2019-01-03T10:22:47.396Z,57.30
2019-01-03T10:25:27.270Z,58.00
2019-01-03T10:28:07.410Z,57.50
2019-01-03T10:30:48.376Z,57.70
2019-01-03T10:33:28.650Z,58.20
2019-01-03T10:36:08.462Z,58.40
2019-01-03T10:38:48.593Z,58.10
2019-01-03T10:41:28.491Z,58.30
2019-01-03T10:44:08.677Z,59.20
2019-01-03T10:49:37.805Z,59.80
2019-01-03T10:52:18.079Z,59.80
2019-01-03T10:54:58.454Z,59.30
2019-01-03T10:57:38.462Z,59.30
2019-01-03T11:00:18.648Z,59.40
2019-01-03T11:02:58.997Z,58.60
2019-01-03T11:05:39.852Z,59.00
2019-01-03T11:08:20.243Z,58.80
2019-01-03T11:11:02.220Z,58.30
2019-01-03T11:13:42.115Z,59.10
2019-01-03T11:16:22.097Z,59.30
2019-01-03T11:19:05.690Z,59.70
2019-01-03T11:21:47.340Z,59.70
2019-01-03T11:24:27.494Z,60.20
2019-01-03T11:27:07.607Z,59.90
2019-01-03T11:29:48.038Z,59.70
2019-01-03T11:32:28.864Z,60.10
2019-01-03T11:35:09.135Z,60.30
2019-01-03T11:40:17.378Z,60.20
2019-01-03T11:42:57.725Z,60.20
2019-01-03T11:45:37.632Z,60.50
2019-01-03T11:48:17.849Z,60.50
2019-01-03T11:50:58.542Z,60.30
2019-01-03T11:53:38.769Z,60.70
2019-01-03T11:56:19.860Z,60.70
2019-01-03T11:59:00.606Z,60.10
2019-01-03T12:01:41.595Z,60.90
2019-01-03T12:04:21.797Z,60.20
2019-01-03T12:07:01.817Z,61.00
2019-01-03T12:09:41.967Z,61.30
2019-01-03T12:12:25.373Z,61.60
2019-01-03T12:15:05.135Z,61.80
2019-01-03T12:17:45.251Z,61.80
2019-01-03T12:20:25.469Z,61.00
2019-01-03T12:23:05.512Z,61.80
2019-01-03T12:25:45.657Z,61.70
2019-01-03T12:28:25.890Z,61.40
2019-01-03T12:31:06.127Z,61.80
2019-01-03T12:33:46.190Z,61.60
2019-01-03T12:36:26.161Z,61.70
2019-01-03T12:39:06.272Z,61.40
2019-01-03T12:41:46.270Z,61.40
2019-01-03T12:44:26.248Z,61.90
2019-01-03T12:47:06.931Z,61.30
2019-01-03T12:49:46.848Z,60.90
2019-01-03T12:52:27.132Z,60.30
2019-01-03T12:55:09.119Z,60.30
2019-01-03T12:57:49.377Z,59.90
2019-01-03T13:00:29.476Z,59.50
2019-01-03T13:03:09.354Z,60.00
2019-01-03T13:05:37.098Z,60.00
2019-01-03T13:08:24.238Z,60.00
2019-01-03T13:11:04.932Z,59.60
2019-01-03T13:13:44.994Z,60.20
2019-01-03T13:16:25.430Z,60.30
2019-01-03T13:19:05.497Z,60.10
2019-01-03T13:21:45.769Z,60.30
2019-01-03T13:24:25.841Z,60.60
2019-01-03T13:27:06.045Z,60.60
2019-01-03T13:29:46.425Z,60.60
2019-01-03T13:32:26.563Z,60.50
2019-01-03T13:35:06.727Z,60.40
2019-01-03T13:37:47.027Z,60.40
2019-01-03T13:40:27.463Z,60.80
2019-01-03T13:43:07.257Z,61.00
2019-01-03T13:45:47.451Z,61.20
2019-01-03T13:48:15.274Z,61.10
2019-01-03T13:54:02.937Z,61.70
2019-01-03T13:56:44.379Z,62.10
2019-01-03T13:59:24.515Z,61.70
2019-01-03T14:02:04.613Z,62.00
2019-01-03T14:04:32.400Z,61.20
2019-01-03T14:07:12.610Z,61.70
2019-01-03T14:09:52.880Z,61.70
2019-01-03T14:12:33.349Z,61.30
2019-01-03T14:15:14.088Z,61.40
2019-01-03T14:17:54.229Z,61.80
2019-01-03T14:20:34.430Z,61.50
2019-01-03T14:23:14.844Z,61.00
2019-01-03T14:25:54.878Z,61.40
2019-01-03T14:28:35.115Z,61.50
2019-01-03T14:31:15.053Z,61.30
2019-01-03T14:33:56.278Z,61.20
2019-01-03T14:36:36.573Z,61.60
2019-01-03T14:39:16.966Z,61.40
2019-01-03T14:44:37.318Z,61.80
2019-01-03T14:47:17.764Z,61.40
2019-01-03T14:49:57.849Z,61.50
2019-01-03T14:52:25.590Z,61.60
2019-01-03T14:55:12.934Z,61.70
2019-01-03T14:57:52.863Z,62.20
2019-01-03T15:00:20.846Z,62.30
2019-01-03T15:03:01.086Z,62.10
2019-01-03T15:05:41.499Z,61.50
2019-01-03T15:08:21.499Z,62.10
2019-01-03T15:11:01.609Z,62.60
2019-01-03T15:13:42.104Z,62.80
2019-01-03T15:16:09.850Z,62.90
2019-01-03T15:18:37.706Z,62.60
2019-01-03T15:21:05.479Z,62.80
2019-01-03T15:23:33.330Z,63.00
2019-01-03T15:26:01.063Z,62.90
2019-01-03T15:28:28.946Z,62.90
2019-01-03T15:30:56.777Z,62.80
2019-01-03T15:33:24.451Z,62.80
2019-01-03T15:35:52.428Z,62.90
2019-01-03T15:38:20.185Z,62.90
2019-01-03T15:40:47.891Z,62.30
2019-01-03T15:43:15.625Z,62.50
2019-01-03T15:45:43.347Z,62.90
2019-01-03T15:48:11.145Z,62.40
2019-01-03T15:50:38.922Z,62.80
2019-01-03T15:53:06.686Z,62.80
2019-01-03T15:55:47.475Z,62.20
2019-01-03T15:58:28.102Z,61.80
2019-01-03T16:01:08.202Z,61.80
2019-01-03T16:03:48.350Z,61.40
2019-01-03T16:06:28.482Z,61.80
2019-01-03T16:09:08.567Z,61.90
2019-01-03T16:11:48.550Z,61.70
2019-01-03T16:14:28.861Z,61.40
2019-01-03T16:17:09.127Z,61.80
2019-01-03T16:19:36.870Z,61.90
2019-01-03T16:22:04.610Z,62.00
2019-01-03T16:24:32.292Z,62.10
2019-01-03T16:27:00.031Z,61.70
2019-01-03T16:29:27.721Z,61.80
2019-01-03T16:31:55.430Z,61.30
2019-01-03T16:34:23.098Z,61.50
2019-01-03T16:36:50.761Z,61.40
2019-01-03T16:39:18.713Z,60.90
2019-01-03T16:41:46.479Z,60.90
2019-01-03T16:44:14.276Z,61.10
2019-01-03T16:46:42.711Z,60.80
2019-01-03T16:49:10.397Z,61.00
2019-01-03T16:51:38.106Z,61.00
2019-01-03T16:54:05.883Z,61.50
2019-01-03T16:56:33.596Z,61.40
2019-01-03T16:59:01.420Z,60.70
2019-01-03T17:01:29.426Z,61.10
2019-01-03T17:04:00.152Z,61.40
2019-01-03T17:06:27.886Z,61.40
2019-01-03T17:08:55.753Z,60.90
2019-01-03T17:11:23.886Z,60.70
2019-01-03T17:13:52.599Z,60.90
2019-01-03T17:16:20.316Z,61.10
2019-01-03T17:18:48.106Z,60.90
2019-01-03T17:21:16.159Z,61.00
2019-01-03T17:23:43.854Z,61.40
2019-01-03T17:26:11.577Z,61.30
2019-01-03T17:28:39.491Z,61.10
2019-01-03T17:31:07.247Z,61.20
2019-01-03T17:33:35.021Z,61.30
2019-01-03T17:36:02.752Z,61.50
2019-01-03T17:38:30.446Z,61.30
2019-01-03T17:40:58.265Z,61.40
2019-01-03T17:43:27.841Z,61.20
2019-01-03T17:45:55.582Z,60.70
2019-01-03T17:48:23.333Z,60.60
2019-01-03T17:50:51.051Z,60.50
2019-01-03T17:53:18.809Z,60.90
2019-01-03T17:55:46.519Z,60.90
2019-01-03T17:58:14.265Z,61.80
2019-01-03T18:00:43.670Z,61.30
2019-01-03T18:03:11.433Z,60.80
2019-01-03T18:05:39.288Z,60.60
2019-01-03T18:08:07.099Z,60.60
2019-01-03T18:10:35.077Z,61.00
2019-01-03T18:13:03.228Z,60.90
2019-01-03T18:15:31.094Z,61.00
2019-01-03T18:17:58.883Z,61.00
2019-01-03T18:20:26.933Z,61.50
2019-01-03T18:22:54.993Z,62.00
2019-01-03T18:25:22.738Z,62.20
2019-01-03T18:27:50.565Z,62.80
2019-01-03T18:30:18.308Z,62.90
2019-01-03T18:32:46.075Z,62.90
2019-01-03T18:35:13.848Z,63.00
2019-01-03T18:37:41.669Z,63.00
2019-01-03T18:40:12.137Z,62.90
2019-01-03T18:42:39.868Z,62.90
2019-01-03T18:45:09.798Z,62.90
2019-01-03T18:47:37.645Z,62.90
2019-01-03T18:50:05.556Z,62.90
2019-01-03T18:52:33.307Z,62.90
2019-01-03T18:55:01.121Z,63.20
2019-01-03T18:57:28.934Z,63.30
2019-01-03T18:59:56.854Z,63.10
2019-01-03T19:02:24.658Z,63.40
2019-01-03T19:04:52.452Z,63.20
2019-01-03T19:07:20.277Z,63.50
2019-01-03T19:09:48.018Z,63.30
2019-01-03T19:12:15.803Z,63.10
2019-01-03T19:14:44.630Z,63.20
2019-01-03T19:17:12.365Z,63.90
2019-01-03T19:19:40.228Z,63.20
2019-01-03T19:22:08.108Z,62.80
2019-01-03T19:24:35.896Z,62.90
2019-01-03T19:27:03.676Z,62.80
2019-01-03T19:29:31.417Z,62.80
2019-01-03T19:31:59.224Z,62.90
2019-01-03T19:34:26.997Z,62.90
2019-01-03T19:36:54.939Z,62.90
2019-01-03T19:39:22.971Z,62.90
2019-01-03T19:41:50.859Z,62.90
2019-01-03T19:44:18.598Z,62.60
2019-01-03T19:46:46.534Z,62.50
2019-01-03T19:49:14.507Z,62.40
2019-01-03T19:51:42.325Z,63.00
2019-01-03T19:54:10.104Z,62.10
2019-01-03T19:56:38.017Z,62.40
2019-01-03T19:59:05.757Z,62.90
2019-01-03T20:01:33.491Z,62.30
2019-01-03T20:04:01.299Z,63.00
2019-01-03T20:06:29.067Z,63.50
2019-01-03T20:08:56.798Z,62.90
2019-01-03T20:11:25.053Z,62.90
2019-01-03T20:13:52.805Z,62.90
2019-01-03T20:16:20.875Z,62.60
2019-01-03T20:18:48.661Z,62.40
2019-01-03T20:21:17.583Z,62.90
2019-01-03T20:23:45.564Z,62.80
2019-01-03T20:26:13.538Z,63.50
2019-01-03T20:28:41.301Z,62.80
2019-01-03T20:31:09.346Z,62.80
2019-01-03T20:33:37.100Z,62.70
2019-01-03T20:36:07.656Z,62.90
2019-01-03T20:38:35.352Z,62.90
2019-01-03T20:41:03.101Z,62.90
2019-01-03T20:43:31.082Z,62.80
2019-01-03T20:45:59.199Z,62.50
2019-01-03T20:48:27.034Z,62.80
2019-01-03T20:50:54.891Z,62.40
2019-01-03T20:53:23.355Z,62.90
2019-01-03T20:55:51.665Z,62.30
2019-01-03T20:58:19.588Z,62.20
2019-01-03T21:00:47.279Z,62.70
2019-01-03T21:03:15.103Z,62.40
2019-01-03T21:05:42.945Z,61.90
2019-01-03T21:08:10.733Z,61.80
2019-01-03T21:10:38.556Z,61.70
2019-01-03T21:13:06.431Z,61.80
2019-01-03T21:15:46.830Z,61.80
2019-01-03T21:18:26.932Z,62.30
2019-01-03T21:21:07.051Z,62.30
2019-01-03T21:23:47.314Z,62.30
2019-01-03T21:26:27.415Z,61.80
2019-01-03T21:29:07.540Z,61.80
2019-01-03T21:31:36.086Z,62.30
2019-01-03T21:34:16.925Z,62.10
2019-01-03T21:36:44.699Z,61.60
2019-01-03T21:39:25.389Z,61.80
2019-01-03T21:42:05.258Z,61.80
2019-01-03T21:44:45.946Z,61.40
2019-01-03T21:47:26.784Z,61.70
2019-01-03T21:50:08.862Z,61.80
2019-01-03T21:52:49.798Z,61.40
2019-01-03T21:55:31.869Z,61.30
2019-01-03T21:58:12.101Z,61.70
2019-01-03T22:00:52.335Z,62.00
2019-01-03T22:03:32.515Z,61.70
2019-01-03T22:06:13.587Z,61.90
2019-01-03T22:08:53.878Z,61.80
2019-01-03T22:11:34.106Z,61.70
2019-01-03T22:14:14.066Z,61.10
2019-01-03T22:16:54.192Z,61.50
2019-01-03T22:19:34.182Z,62.00
2019-01-03T22:22:14.242Z,61.60
2019-01-03T22:24:54.419Z,61.80
2019-01-03T22:27:34.739Z,61.80
2019-01-03T22:30:15.095Z,61.80
2019-01-03T22:32:55.748Z,61.50
2019-01-03T22:38:16.615Z,62.00
2019-01-03T22:40:57.763Z,61.90
2019-01-03T22:43:37.925Z,61.60
2019-01-03T22:48:57.980Z,61.00
2019-01-03T22:51:38.131Z,61.10
2019-01-03T22:54:18.332Z,61.40
2019-01-03T22:56:59.696Z,61.70
2019-01-03T22:59:39.729Z,62.10
2019-01-03T23:02:19.796Z,62.50
2019-01-03T23:04:59.957Z,62.40
2019-01-03T23:07:40.096Z,62.00
2019-01-03T23:10:20.136Z,62.00
2019-01-03T23:13:03.204Z,62.00
2019-01-03T23:15:44.496Z,62.20
2019-01-03T23:18:31.372Z,62.30
2019-01-03T23:21:07.786Z,62.10
2019-01-03T23:23:47.750Z,61.70
2019-01-03T23:26:28.635Z,61.70
2019-01-03T23:29:08.896Z,61.80
2019-01-03T23:31:49.068Z,62.00
2019-01-03T23:34:29.220Z,62.20
2019-01-03T23:37:10.102Z,62.20
2019-01-03T23:39:50.357Z,62.60
2019-01-03T23:42:33.905Z,62.70
2019-01-03T23:45:14.646Z,62.70
2019-01-03T23:47:54.817Z,62.80
2019-01-03T23:50:36.861Z,62.90
2019-01-03T23:53:16.918Z,62.90
2019-01-03T23:55:57.049Z,63.30
2019-01-03T23:58:37.372Z,63.00
